| time (UTC) | temp C | wind direction | speed KPH | gust KPH | rain 1hr cm | rain 24hr cm | rain mn cm | humidity % | barometer mb |
| 20260508072705 | 13 | 91 | 16.1 | 22.5 | 0.00 | 0.00 | 0.00 | 60 | 1020.4 |
| 20260508071705 | 13 | 79 | 11.3 | 12.9 | 0.00 | 0.00 | 0.00 | 59 | 1020.4 |
| 20260508071205 | 13 | 88 | 14.5 | 16.1 | 0.00 | 0.00 | 0.00 | 61 | 1020.3 |
| 20260508070705 | 13 | 68 | 6.4 | 16.1 | 0.00 | 0.00 | 0.00 | 64 | 1020.2 |
| 20260508070205 | 13 | 68 | 9.7 | 11.3 | 0.00 | 0.00 | 0.00 | 66 | 1020.2 |
| 20260508065705 | 12 | 41 | 8.0 | 12.9 | 0.00 | 0.00 | 0.00 | 65 | 1020.1 |
| 20260508064705 | 12 | 90 | 14.5 | 16.1 | 0.00 | 0.00 | 0.00 | 65 | 1020.0 |
| 20260508064205 | 12 | 93 | 9.7 | 12.9 | 0.00 | 0.00 | 0.00 | 66 | 1020.0 |
| 20260508063205 | 12 | 85 | 14.5 | 20.9 | 0.00 | 0.00 | 0.00 | 66 | 1019.8 |
| 20260508061705 | 11 | 88 | 6.4 | 9.7 | 0.00 | 0.00 | 0.00 | 69 | 1019.7 |
| 20260508061205 | 11 | 64 | 8.0 | 9.7 | 0.00 | 0.00 | 0.00 | 70 | 1019.7 |
| 20260508060705 | 11 | 59 | 6.4 | 8.0 | 0.00 | 0.00 | 0.00 | 73 | 1019.7 |
| 20260508060206 | 11 | 31 | 4.8 | 8.0 | 0.00 | 0.00 | 0.00 | 74 | 1019.6 |
| 20260508053705 | 8 | 101 | 0.0 | 0.0 | 0.00 | 0.00 | 0.00 | 84 | 1019.4 |
| 20260508052706 | 7 | 131 | 0.0 | 0.0 | 0.00 | 0.00 | 0.00 | 85 | 1019.5 |
| 20260508051205 | 6 | 133 | 0.0 | 0.0 | 0.00 | 0.00 | 0.00 | 84 | 1019.4 |
| 20260508050705 | 6 | 133 | 0.0 | 0.0 | 0.00 | 0.00 | 0.00 | 84 | 1019.4 |
| 20260508050207 | 6 | 133 | 0.0 | 0.0 | 0.00 | 0.00 | 0.00 | 85 | 1019.4 |
| 20260508042205 | 3 | 133 | 0.0 | 0.0 | 0.00 | 0.00 | 0.00 | 88 | 1019.2 |
| 20260508041205 | 2 | 133 | 0.0 | 0.0 | 0.00 | 0.00 | 0.00 | 87 | 1019.1 |
| 20260508040205 | 2 | 133 | 0.0 | 0.0 | 0.00 | 0.00 | 0.00 | 87 | 1019.2 |
| 20260508035706 | 2 | 133 | 0.0 | 0.0 | 0.00 | 0.00 | 0.00 | 87 | 1019.2 |
| 20260508034706 | 2 | 133 | 0.0 | 0.0 | 0.00 | 0.00 | 0.00 | 86 | 1019.1 |
| 20260508033705 | 2 | 133 | 0.0 | 0.0 | 0.00 | 0.00 | 0.00 | 86 | 1019.0 |
| 20260508032705 | 2 | 133 | 0.0 | 0.0 | 0.00 | 0.00 | 0.00 | 86 | 1019.0 |
| 20260508031205 | 2 | 133 | 0.0 | 0.0 | 0.00 | 0.00 | 0.00 | 86 | 1018.9 |
| 20260508030705 | 2 | 133 | 0.0 | 0.0 | 0.00 | 0.00 | 0.00 | 86 | 1018.9 |
| 20260508030205 | 2 | 133 | 0.0 | 0.0 | 0.00 | 0.00 | 0.00 | 86 | 1018.9 |
| 20260508025705 | 2 | 133 | 0.0 | 0.0 | 0.00 | 0.00 | 0.00 | 86 | 1018.9 |
| 20260508025206 | 2 | 133 | 0.0 | 0.0 | 0.00 | 0.00 | 0.00 | 86 | 1018.9 |
| 20260508024705 | 2 | 133 | 0.0 | 0.0 | 0.00 | 0.00 | 0.00 | 86 | 1018.9 |
| 20260508024205 | 2 | 133 | 0.0 | 0.0 | 0.00 | 0.00 | 0.00 | 86 | 1018.8 |
| 20260508023205 | 2 | 133 | 0.0 | 0.0 | 0.00 | 0.00 | 0.00 | 86 | 1018.8 |
| 20260508022705 | 2 | 133 | 0.0 | 0.0 | 0.00 | 0.00 | 0.00 | 86 | 1018.8 |
| 20260508021707 | 2 | 133 | 0.0 | 0.0 | 0.00 | 0.00 | 0.00 | 85 | 1018.7 |
| 20260508021205 | 2 | 133 | 0.0 | 0.0 | 0.00 | 0.00 | 0.00 | 85 | 1018.7 |
| 20260508020205 | 3 | 133 | 0.0 | 0.0 | 0.00 | 0.00 | 0.00 | 85 | 1018.7 |
| 20260508015205 | 3 | 133 | 0.0 | 0.0 | 0.00 | 0.00 | 0.00 | 85 | 1018.6 |
| 20260508013705 | 3 | 133 | 0.0 | 0.0 | 0.00 | 0.00 | 0.00 | 84 | 1018.6 |
| 20260508013205 | 3 | 133 | 0.0 | 1.6 | 0.00 | 0.00 | 0.00 | 84 | 1018.5 |
| 20260508012705 | 3 | 133 | 3.2 | 4.8 | 0.00 | 0.00 | 0.00 | 84 | 1018.5 |
| 20260508012206 | 3 | 133 | 4.8 | 4.8 | 0.00 | 0.00 | 0.00 | 84 | 1018.5 |
| 20260508011705 | 3 | 133 | 6.4 | 4.8 | 0.00 | 0.00 | 0.00 | 83 | 1018.5 |
| 20260508011205 | 3 | 133 | 0.0 | 0.0 | 0.00 | 0.00 | 0.00 | 82 | 1018.5 |
| 20260508005705 | 4 | 133 | 0.0 | 0.0 | 0.00 | 0.00 | 0.00 | 83 | 1018.5 |
| 20260508004705 | 4 | 133 | 3.2 | 4.8 | 0.00 | 0.00 | 0.00 | 83 | 1018.5 |
| 20260508003204 | 5 | 127 | 8.0 | 8.0 | 0.00 | 0.00 | 0.00 | 83 | 1018.3 |
| 20260508002205 | 5 | 122 | 9.7 | 9.7 | 0.00 | 0.00 | 0.00 | 84 | 1018.4 |
| 20260508000705 | 5 | 126 | 8.0 | 9.7 | 0.00 | 0.00 | 0.00 | 84 | 1018.3 |
| 20260507235706 | 5 | 105 | 9.7 | 8.0 | 0.00 | 0.00 | 0.00 | 84 | 1018.3 |
| 20260507235205 | 5 | 105 | 8.0 | 8.0 | 0.00 | 0.00 | 0.00 | 84 | 1018.2 |
| 20260507234705 | 5 | 105 | 8.0 | 9.7 | 0.00 | 0.00 | 0.00 | 84 | 1018.2 |
| 20260507234205 | 5 | 88 | 8.0 | 8.0 | 0.00 | 0.00 | 0.00 | 84 | 1018.2 |
| 20260507233704 | 5 | 81 | 8.0 | 8.0 | 0.00 | 0.00 | 0.00 | 83 | 1018.1 |
| 20260507233205 | 5 | 81 | 8.0 | 8.0 | 0.00 | 0.00 | 0.00 | 83 | 1018.1 |
| 20260507232205 | 5 | 81 | 3.2 | 3.2 | 0.00 | 0.00 | 0.00 | 82 | 1018.2 |
| 20260507225205 | 5 | 83 | 8.0 | 8.0 | 0.00 | 0.00 | 0.00 | 82 | 1018.0 |
| 20260507224205 | 5 | 82 | 8.0 | 8.0 | 0.00 | 0.00 | 0.00 | 82 | 1017.9 |
| 20260507223705 | 5 | 70 | 8.0 | 8.0 | 0.00 | 0.00 | 0.00 | 82 | 1017.9 |
| 20260507222705 | 5 | 67 | 4.8 | 8.0 | 0.00 | 0.00 | 0.00 | 82 | 1017.8 |
| 20260507222204 | 5 | 63 | 4.8 | 4.8 | 0.00 | 0.00 | 0.00 | 82 | 1017.8 |
| 20260507221208 | 5 | 62 | 4.8 | 4.8 | 0.00 | 0.00 | 0.00 | 82 | 1017.6 |
| 20260507220705 | 5 | 62 | 4.8 | 4.8 | 0.00 | 0.00 | 0.00 | 81 | 1017.6 |
| 20260507220205 | 5 | 62 | 4.8 | 4.8 | 0.00 | 0.00 | 0.00 | 81 | 1017.6 |
| 20260507215706 | 5 | 62 | 0.0 | 4.8 | 0.00 | 0.00 | 0.00 | 81 | 1017.6 |
| 20260507214206 | 5 | 62 | 0.0 | 0.0 | 0.00 | 0.00 | 0.00 | 80 | 1017.5 |
| 20260507213704 | 5 | 62 | 0.0 | 0.0 | 0.00 | 0.00 | 0.00 | 80 | 1017.6 |
| 20260507213205 | 5 | 62 | 0.0 | 0.0 | 0.00 | 0.00 | 0.00 | 80 | 1017.5 |
| 20260507212205 | 6 | 62 | 0.0 | 0.0 | 0.00 | 0.00 | 0.00 | 79 | 1017.4 |
| 20260507211704 | 6 | 62 | 0.0 | 0.0 | 0.00 | 0.00 | 0.00 | 79 | 1017.4 |
| 20260507205705 | 6 | 62 | 3.2 | 4.8 | 0.00 | 0.00 | 0.00 | 77 | 1017.3 |
| 20260507204705 | 7 | 35 | 0.0 | 0.0 | 0.00 | 0.00 | 0.00 | 77 | 1017.3 |
| 20260507202204 | 7 | 356 | 0.0 | 0.0 | 0.00 | 0.00 | 0.00 | 74 | 1017.0 |
| 20260507201706 | 7 | 356 | 0.0 | 0.0 | 0.00 | 0.00 | 0.00 | 74 | 1016.9 |
| 20260507201204 | 7 | 356 | 0.0 | 0.0 | 0.00 | 0.00 | 0.00 | 74 | 1016.9 |
| 20260507200204 | 8 | 356 | 0.0 | 0.0 | 0.00 | 0.00 | 0.00 | 72 | 1016.8 |
| 20260507195206 | 8 | 356 | 0.0 | 0.0 | 0.00 | 0.00 | 0.00 | 70 | 1016.7 |
| 20260507194704 | 8 | 356 | 0.0 | 0.0 | 0.00 | 0.00 | 0.00 | 70 | 1016.7 |
| 20260507192704 | 10 | 356 | 0.0 | 0.0 | 0.00 | 0.00 | 0.00 | 67 | 1016.5 |
| 20260507191704 | 10 | 356 | 0.0 | 0.0 | 0.00 | 0.00 | 0.00 | 65 | 1016.5 |
| 20260507191205 | 10 | 356 | 0.0 | 0.0 | 0.00 | 0.00 | 0.00 | 65 | 1016.5 |
| 20260507185704 | 11 | 356 | 1.6 | 3.2 | 0.00 | 0.00 | 0.00 | 63 | 1016.3 |
| 20260507184205 | 11 | 356 | 4.8 | 8.0 | 0.00 | 0.00 | 0.00 | 62 | 1016.2 |
| 20260507182704 | 11 | 354 | 4.8 | 8.0 | 0.00 | 0.00 | 0.00 | 62 | 1016.2 |
| 20260507182204 | 11 | 354 | 4.8 | 8.0 | 0.00 | 0.00 | 0.00 | 61 | 1016.2 |
| 20260507181704 | 12 | 353 | 4.8 | 8.0 | 0.00 | 0.00 | 0.00 | 61 | 1016.2 |
| 20260507181205 | 12 | 353 | 8.0 | 11.3 | 0.00 | 0.00 | 0.00 | 61 | 1016.2 |
| 20260507180704 | 12 | 2 | 8.0 | 9.7 | 0.00 | 0.00 | 0.00 | 61 | 1016.2 |
| 20260507175704 | 12 | 0 | 9.7 | 11.3 | 0.00 | 0.00 | 0.00 | 60 | 1015.9 |
| 20260507175206 | 12 | 349 | 8.0 | 11.3 | 0.00 | 0.00 | 0.00 | 60 | 1015.9 |
| 20260507173204 | 12 | 347 | 14.5 | 16.1 | 0.00 | 0.00 | 0.00 | 58 | 1015.9 |
| 20260507172704 | 12 | 344 | 11.3 | 12.9 | 0.00 | 0.00 | 0.00 | 58 | 1015.9 |
| 20260507171204 | 13 | 353 | 16.1 | 22.5 | 0.00 | 0.00 | 0.00 | 55 | 1015.7 |
| 20260507165204 | 13 | 355 | 14.5 | 20.9 | 0.00 | 0.00 | 0.00 | 53 | 1015.5 |
| 20260507163706 | 13 | 334 | 11.3 | 20.9 | 0.00 | 0.00 | 0.00 | 53 | 1015.6 |
| 20260507162704 | 13 | 350 | 16.1 | 22.5 | 0.00 | 0.00 | 0.00 | 52 | 1015.6 |
| 20260507154705 | 14 | 348 | 14.5 | 22.5 | 0.00 | 0.00 | 0.00 | 52 | 1015.5 |
| 20260507153705 | 14 | 338 | 16.1 | 22.5 | 0.00 | 0.00 | 0.00 | 53 | 1015.5 |
| 20260507153204 | 14 | 333 | 14.5 | 22.5 | 0.00 | 0.00 | 0.00 | 50 | 1015.4 |
| 20260507152204 | 14 | 352 | 19.3 | 29.0 | 0.00 | 0.00 | 0.00 | 53 | 1015.2 |
| 20260507151706 | 14 | 344 | 17.7 | 24.1 | 0.00 | 0.00 | 0.00 | 52 | 1015.2 |
| 20260507150704 | 14 | 337 | 19.3 | 25.7 | 0.00 | 0.00 | 0.00 | 53 | 1015.2 |
| 20260507145204 | 14 | 353 | 22.5 | 25.7 | 0.00 | 0.00 | 0.00 | 49 | 1015.1 |
| 20260507144704 | 14 | 328 | 22.5 | 27.4 | 0.00 | 0.00 | 0.00 | 51 | 1015.2 |
| 20260507143706 | 14 | 339 | 22.5 | 27.4 | 0.00 | 0.00 | 0.00 | 51 | 1015.1 |
| 20260507142704 | 14 | 349 | 19.3 | 24.1 | 0.00 | 0.00 | 0.00 | 53 | 1015.2 |
| 20260507141204 | 14 | 352 | 19.3 | 25.7 | 0.00 | 0.00 | 0.00 | 53 | 1015.1 |
| 20260507140704 | 14 | 341 | 20.9 | 25.7 | 0.00 | 0.00 | 0.00 | 54 | 1015.1 |
| 20260507140204 | 14 | 336 | 16.1 | 25.7 | 0.00 | 0.00 | 0.00 | 53 | 1015.1 |
| 20260507135704 | 14 | 349 | 24.1 | 27.4 | 0.00 | 0.00 | 0.00 | 53 | 1015.1 |
| 20260507135204 | 14 | 355 | 22.5 | 27.4 | 0.00 | 0.00 | 0.00 | 53 | 1015.1 |
| 20260507134204 | 14 | 329 | 16.1 | 27.4 | 0.00 | 0.00 | 0.00 | 54 | 1015.1 |
| 20260507133704 | 14 | 353 | 27.4 | 29.0 | 0.00 | 0.00 | 0.00 | 54 | 1015.1 |
| 20260507133205 | 14 | 346 | 22.5 | 27.4 | 0.00 | 0.00 | 0.00 | 53 | 1015.1 |
| 20260507131704 | 14 | 343 | 20.9 | 29.0 | 0.00 | 0.00 | 0.00 | 54 | 1015.2 |
| 20260507125704 | 14 | 341 | 20.9 | 27.4 | 0.00 | 0.00 | 0.00 | 52 | 1015.0 |
| 20260507124704 | 14 | 346 | 22.5 | 29.0 | 0.00 | 0.00 | 0.00 | 56 | 1015.0 |
| 20260507123203 | 14 | 346 | 22.5 | 29.0 | 0.00 | 0.00 | 0.00 | 57 | 1014.9 |
| 20260507122705 | 14 | 336 | 22.5 | 29.0 | 0.00 | 0.00 | 0.00 | 56 | 1014.9 |
| 20260507121705 | 14 | 336 | 22.5 | 25.7 | 0.00 | 0.00 | 0.00 | 55 | 1014.9 |
| 20260507121204 | 14 | 322 | 24.1 | 29.0 | 0.00 | 0.00 | 0.00 | 55 | 1014.8 |
| 20260507120704 | 14 | 337 | 19.3 | 27.4 | 0.00 | 0.00 | 0.00 | 56 | 1014.8 |
| 20260507115706 | 14 | 337 | 20.9 | 27.4 | 0.00 | 0.00 | 0.00 | 57 | 1014.8 |
| 20260507113707 | 14 | 347 | 20.9 | 27.4 | 0.00 | 0.00 | 0.00 | 60 | 1014.7 |
| 20260507113206 | 14 | 322 | 17.7 | 25.7 | 0.00 | 0.00 | 0.00 | 62 | 1014.7 |
| 20260507111706 | 14 | 329 | 16.1 | 22.5 | 0.00 | 0.00 | 0.00 | 60 | 1014.7 |
| 20260507111206 | 14 | 336 | 16.1 | 24.1 | 0.00 | 0.00 | 0.00 | 60 | 1014.8 |
| 20260507105706 | 14 | 336 | 17.7 | 24.1 | 0.00 | 0.00 | 0.00 | 59 | 1014.8 |
| 20260507104207 | 13 | 345 | 11.3 | 24.1 | 0.00 | 0.00 | 0.00 | 55 | 1014.7 |
| 20260507103707 | 13 | 350 | 19.3 | 24.1 | 0.00 | 0.00 | 0.00 | 54 | 1014.7 |
| 20260507103206 | 14 | 350 | 14.5 | 24.1 | 0.00 | 0.00 | 0.00 | 55 | 1014.7 |
| 20260507102206 | 14 | 336 | 8.0 | 16.1 | 0.00 | 0.00 | 0.00 | 50 | 1014.7 |
| 20260507100705 | 13 | 350 | 14.5 | 20.9 | 0.00 | 0.00 | 0.00 | 49 | 1014.6 |
| 20260507100207 | 13 | 25 | 14.5 | 20.9 | 0.00 | 0.00 | 0.00 | 49 | 1014.6 |
| 20260507095705 | 13 | 13 | 11.3 | 11.3 | 0.00 | 0.00 | 0.00 | 51 | 1014.6 |
| 20260507094705 | 13 | 50 | 14.5 | 16.1 | 0.00 | 0.00 | 0.00 | 49 | 1014.5 |
| 20260507093206 | 14 | 28 | 9.7 | 14.5 | 0.00 | 0.00 | 0.00 | 50 | 1014.5 |
| 20260507085707 | 13 | 329 | 9.7 | 11.3 | 0.00 | 0.00 | 0.00 | 51 | 1014.3 |
| 20260507085205 | 13 | 353 | 11.3 | 20.9 | 0.00 | 0.00 | 0.00 | 52 | 1014.3 |
| 20260507084205 | 13 | 339 | 9.7 | 11.3 | 0.00 | 0.00 | 0.00 | 51 | 1014.2 |
| 20260507083706 | 12 | 312 | 9.7 | 12.9 | 0.00 | 0.00 | 0.00 | 51 | 1014.2 |
| 20260507083207 | 12 | 272 | 8.0 | 11.3 | 0.00 | 0.00 | 0.00 | 50 | 1014.1 |
| 20260507081706 | 12 | 339 | 3.2 | 9.7 | 0.00 | 0.00 | 0.00 | 52 | 1014.0 |
| 20260507080706 | 12 | 8 | 4.8 | 8.0 | 0.00 | 0.00 | 0.00 | 55 | 1013.8 |
| 20260507075207 | 12 | 18 | 6.4 | 8.0 | 0.00 | 0.00 | 0.00 | 59 | 1013.8 |
| 20260507074205 | 12 | 16 | 6.4 | 8.0 | 0.00 | 0.00 | 0.00 | 60 | 1013.8 |